Time;durP1;ratioP1;P1;durP2;ratioP2;P2;SDS_P1;SDS_P2;PMS_P1;PMS_P2;Temp;Humidity;BMP_temperature;BMP_pressure;BME280_temperature;BME280_humidity;BME280_pressure;Samples;Min_cycle;Max_cycle;Signal;HPM_P1;HPM_P2
2023/08/24 00:00:40;;;;;;;;;9.67;8.33;;;;;28.54;100.00;101137.94;5036106;28;45454;-77
2023/08/24 00:03:05;;;;;;;;;12.33;11.00;;;;;28.54;100.00;101137.06;5035345;28;46694;-76
2023/08/24 00:05:37;;;;;;;;;15.00;11.00;;;;;28.50;100.00;101133.69;5035726;28;45451;-77
2023/08/24 00:08:06;;;;;;;;;10.00;9.00;;;;;28.49;100.00;101121.03;5034736;28;45489;-76
2023/08/24 00:10:32;;;;;;;;;14.67;10.00;;;;;28.50;100.00;101119.19;5036077;28;45446;-74
2023/08/24 00:12:58;;;;;;;;;9.33;8.33;;;;;28.42;100.00;101112.38;5034912;28;46387;-76
2023/08/24 00:15:23;;;;;;;;;13.33;10.00;;;;;28.39;100.00;101107.16;5035680;28;45332;-75
2023/08/24 00:17:49;;;;;;;;;10.67;9.67;;;;;28.39;100.00;101115.28;5035090;28;45316;-76
2023/08/24 00:20:15;;;;;;;;;10.00;9.67;;;;;28.35;100.00;101111.00;5035826;28;45449;-75
2023/08/24 00:22:40;;;;;;;;;11.00;10.00;;;;;28.38;100.00;101112.66;5035492;28;46036;-76
2023/08/24 00:25:07;;;;;;;;;9.67;8.33;;;;;28.32;100.00;101119.28;5035594;28;45148;-76
2023/08/24 00:27:33;;;;;;;;;9.67;8.67;;;;;28.30;100.00;101107.66;5034045;28;45455;-75
2023/08/24 00:29:58;;;;;;;;;7.00;7.00;;;;;28.32;100.00;101115.69;5035903;28;45298;-75
2023/08/24 00:32:23;;;;;;;;;8.67;7.33;;;;;28.28;100.00;101112.28;5035350;28;46354;-75
2023/08/24 00:34:49;;;;;;;;;8.00;8.00;;;;;28.28;100.00;101120.41;5037982;28;49759;-75
2023/08/24 00:37:14;;;;;;;;;8.67;8.00;;;;;28.28;100.00;101119.53;5038361;28;52933;-76
2023/08/24 00:39:40;;;;;;;;;7.67;7.33;;;;;28.24;100.00;101118.88;5038303;28;52186;-75
2023/08/24 00:42:05;;;;;;;;;8.00;8.00;;;;;28.27;100.00;101118.66;5037928;28;58871;-77
2023/08/24 00:44:31;;;;;;;;;9.00;9.00;;;;;28.23;100.00;101128.00;5038518;28;45483;-77
2023/08/24 00:46:57;;;;;;;;;7.67;7.67;;;;;28.23;100.00;101118.94;5038526;28;45474;-76
2023/08/24 00:49:22;;;;;;;;;8.33;8.33;;;;;28.19;100.00;101119.13;5038745;28;45286;-76
2023/08/24 00:51:48;;;;;;;;;8.33;8.33;;;;;28.18;100.00;101122.81;5037611;28;60665;-76
2023/08/24 00:54:13;;;;;;;;;8.00;8.00;;;;;28.16;100.00;101124.72;5020603;28;45439;-75
2023/08/24 00:56:39;;;;;;;;;10.67;10.67;;;;;28.12;100.00;101120.44;5037576;28;52674;-75
2023/08/24 00:59:05;;;;;;;;;8.33;8.33;;;;;28.11;100.00;101115.97;5038734;28;45589;-75
2023/08/24 01:01:30;;;;;;;;;8.00;8.00;;;;;28.09;100.00;101119.75;5020050;28;59271;-78
2023/08/24 01:03:55;;;;;;;;;9.00;9.00;;;;;28.06;100.00;101117.19;5037498;28;63437;-75
2023/08/24 01:06:21;;;;;;;;;8.67;8.67;;;;;28.02;100.00;101111.09;5037693;28;45769;-76
2023/08/24 01:08:46;;;;;;;;;8.67;7.00;;;;;28.01;100.00;101112.03;5038759;28;45400;-75
2023/08/24 01:11:17;;;;;;;;;8.00;8.00;;;;;28.00;100.00;101107.56;5037470;28;51737;-76
2023/08/24 01:13:45;;;;;;;;;11.00;8.00;;;;;28.00;100.00;101117.56;5038404;28;45459;-76
2023/08/24 01:16:21;;;;;;;;;6.33;6.00;;;;;27.97;100.00;101117.75;5037889;28;45340;-77
2023/08/24 01:18:47;;;;;;;;;8.33;8.00;;;;;27.95;100.00;101115.09;5038674;28;45602;-77
2023/08/24 01:21:13;;;;;;;;;8.33;7.00;;;;;27.97;100.00;101115.91;5037864;28;46571;-75
2023/08/24 01:24:46;;;;;;;;;10.33;7.33;;;;;27.89;100.00;101110.03;5020431;28;45416;-76
2023/08/24 01:27:12;;;;;;;;;8.00;8.00;;;;;27.87;100.00;101118.25;4932717;28;45327;-75
2023/08/24 01:29:40;;;;;;;;;7.00;7.00;;;;;27.83;100.00;101108.53;4938059;28;45594;-75
2023/08/24 01:32:09;;;;;;;;;10.33;8.00;;;;;27.83;100.00;101111.25;5005760;28;46291;-76
2023/08/24 01:34:37;;;;;;;;;8.00;7.00;;;;;27.80;100.00;101100.56;5037504;28;45446;-76
2023/08/24 01:37:02;;;;;;;;;8.33;8.33;;;;;27.75;100.00;101096.34;5037984;28;45400;-76
2023/08/24 01:39:36;;;;;;;;;8.00;8.00;;;;;27.74;100.00;101090.06;5036954;28;61289;-76
2023/08/24 01:42:04;;;;;;;;;8.33;8.33;;;;;27.74;100.00;101090.06;5037549;28;47002;-76
2023/08/24 01:44:35;;;;;;;;;8.00;8.00;;;;;27.68;100.00;101087.66;5013414;28;45682;-76
2023/08/24 01:47:03;;;;;;;;;7.00;6.33;;;;;27.66;100.00;101082.31;5037787;28;45454;-76
2023/08/24 01:49:29;;;;;;;;;10.00;8.67;;;;;27.66;100.00;101081.44;5019937;28;45317;-75
2023/08/24 01:51:55;;;;;;;;;12.33;10.67;;;;;27.66;100.00;101076.91;5037491;28;49901;-75
2023/08/24 01:54:20;;;;;;;;;10.00;8.67;;;;;27.67;100.00;101081.34;5037332;28;52059;-75
2023/08/24 01:56:45;;;;;;;;;8.00;7.00;;;;;27.66;100.00;101076.03;5019132;28;58556;-75
2023/08/24 01:59:11;;;;;;;;;8.00;8.00;;;;;27.65;100.00;101071.56;5037119;28;60241;-77
2023/08/24 02:01:36;;;;;;;;;9.67;8.00;;;;;27.63;100.00;101071.63;5037165;28;45760;-76
2023/08/24 02:04:01;;;;;;;;;8.67;8.33;;;;;27.60;100.00;101066.41;5037989;28;45557;-75
2023/08/24 02:06:27;;;;;;;;;9.67;8.00;;;;;27.59;100.00;101075.50;5036336;28;54380;-76
2023/08/24 02:08:52;;;;;;;;;8.00;8.00;;;;;27.56;100.00;101064.81;5037855;28;46072;-76
2023/08/24 02:11:18;;;;;;;;;10.00;10.00;;;;;27.52;100.00;101056.94;5036165;28;59569;-75
2023/08/24 02:13:43;;;;;;;;;9.67;9.67;;;;;27.52;100.00;101059.63;5037277;28;54341;-76
2023/08/24 02:16:08;;;;;;;;;8.33;8.33;;;;;27.54;100.00;101058.63;5036967;28;50817;-76
2023/08/24 02:18:34;;;;;;;;;9.00;9.00;;;;;27.56;100.00;101063.94;5037772;28;45483;-76
2023/08/24 02:20:59;;;;;;;;;9.67;9.67;;;;;27.54;100.00;101061.31;5036899;28;46306;-76
2023/08/24 02:23:24;;;;;;;;;9.67;7.33;;;;;27.54;100.00;101053.19;5037416;28;45432;-75
2023/08/24 02:25:50;;;;;;;;;10.00;9.00;;;;;27.51;100.00;101050.63;5036599;28;55298;-76
2023/08/24 02:28:15;;;;;;;;;9.00;8.00;;;;;27.50;100.00;101043.47;5036265;28;45487;-76
2023/08/24 02:30:40;;;;;;;;;9.00;7.67;;;;;27.47;100.00;101042.75;5035848;28;60291;-78
2023/08/24 02:33:06;;;;;;;;;10.33;8.00;;;;;27.44;100.00;101038.38;5036902;28;48998;-76
2023/08/24 02:35:31;;;;;;;;;8.33;8.33;;;;;27.45;100.00;101028.41;5036130;28;45672;-77
2023/08/24 02:37:57;;;;;;;;;10.00;8.67;;;;;27.38;100.00;101031.47;5036980;28;45235;-75
2023/08/24 02:40:23;;;;;;;;;8.00;8.00;;;;;27.35;100.00;101030.75;5031978;28;45868;-75
2023/08/24 02:42:48;;;;;;;;;9.67;8.67;;;;;27.34;100.00;101027.16;5037060;28;45179;-75
2023/08/24 02:45:13;;;;;;;;;9.67;9.00;;;;;27.29;100.00;101023.84;5036390;28;45626;-75
2023/08/24 02:47:39;;;;;;;;;11.67;10.33;;;;;27.26;100.00;101023.13;5036477;28;45336;-76
2023/08/24 02:50:06;;;;;;;;;8.33;8.33;;;;;27.27;100.00;101017.63;5035926;28;68272;-76
2023/08/24 02:52:32;;;;;;;;;7.00;7.00;;;;;27.23;100.00;101005.22;5036781;28;45475;-75
2023/08/24 02:54:57;;;;;;;;;8.00;7.00;;;;;27.18;100.00;101004.59;5041574;28;45600;-75
2023/08/24 02:57:23;;;;;;;;;10.33;9.00;;;;;27.18;100.00;101001.88;5045802;28;45424;-76
2023/08/24 02:59:48;;;;;;;;;7.00;7.00;;;;;27.18;100.00;101004.59;5036801;28;45654;-76
2023/08/24 03:02:14;;;;;;;;;8.00;8.00;;;;;27.14;100.00;100998.44;5036675;28;45225;-75
2023/08/24 03:04:39;;;;;;;;;9.33;9.33;;;;;27.14;100.00;100997.56;5038947;28;62855;-76
2023/08/24 03:07:07;;;;;;;;;8.00;8.00;;;;;27.08;100.00;100993.38;5036568;28;51988;-76
2023/08/24 03:09:34;;;;;;;;;9.00;9.00;;;;;27.11;100.00;100995.94;5036345;28;47532;-76
2023/08/24 03:11:59;;;;;;;;;9.33;8.00;;;;;27.13;100.00;100987.69;5036884;28;45322;-76
2023/08/24 03:14:24;;;;;;;;;9.33;8.00;;;;;27.12;100.00;100983.25;5018287;28;52019;-76
2023/08/24 03:16:50;;;;;;;;;8.67;8.67;;;;;27.13;100.00;100983.16;5036831;28;45636;-75
2023/08/24 03:19:17;;;;;;;;;9.33;9.33;;;;;27.10;100.00;100974.31;5035713;28;66511;-75
2023/08/24 03:21:43;;;;;;;;;11.67;8.67;;;;;27.11;100.00;100984.19;5036105;28;45245;-76
2023/08/24 03:24:09;;;;;;;;;9.00;8.00;;;;;27.09;100.00;100981.56;5036560;28;45348;-76
2023/08/24 03:26:34;;;;;;;;;8.00;8.00;;;;;27.10;100.00;100980.59;5036305;28;45300;-76
2023/08/24 03:28:59;;;;;;;;;12.67;11.00;;;;;27.05;100.00;100974.53;5039740;28;47367;-75
2023/08/24 03:31:26;;;;;;;;;9.00;9.00;;;;;27.06;100.00;100975.38;5036009;28;58515;-76
2023/08/24 03:33:51;;;;;;;;;9.67;9.67;;;;;27.05;100.00;100966.38;5035996;28;45151;-76
2023/08/24 03:36:17;;;;;;;;;8.00;7.33;;;;;27.04;100.00;100971.91;5033073;28;45654;-76
2023/08/24 03:38:42;;;;;;;;;12.00;11.00;;;;;27.05;100.00;100973.66;5035503;28;45637;-75
2023/08/24 03:41:07;;;;;;;;;7.67;7.67;;;;;27.06;100.00;100970.88;5035254;28;45454;-75
2023/08/24 03:43:35;;;;;;;;;6.33;6.33;;;;;27.06;100.00;100969.97;5036098;28;45320;-77
2023/08/24 03:46:01;;;;;;;;;10.00;9.00;;;;;27.02;100.00;100960.28;5036368;28;45519;-75
2023/08/24 03:48:27;;;;;;;;;14.00;10.67;;;;;27.00;100.00;100959.47;5035353;28;46525;-75
2023/08/24 03:50:56;;;;;;;;;11.33;9.33;;;;;26.99;100.00;100965.84;5036009;28;45482;-76
2023/08/24 03:53:22;;;;;;;;;10.00;8.00;;;;;26.95;100.00;100962.44;5036221;28;45426;-76
2023/08/24 03:55:49;;;;;;;;;9.00;9.00;;;;;26.97;100.00;100963.25;5035990;28;45499;-76
2023/08/24 03:58:14;;;;;;;;;10.00;9.00;;;;;26.97;100.00;100954.25;5035686;28;45892;-76
2023/08/24 04:00:41;;;;;;;;;11.00;9.67;;;;;26.96;100.00;100956.06;5035240;28;50207;-75
2023/08/24 04:03:07;;;;;;;;;8.67;8.67;;;;;26.95;100.00;100954.31;5040437;28;45454;-75
2023/08/24 04:05:32;;;;;;;;;10.33;10.33;;;;;26.95;100.00;100962.44;5035535;28;45516;-75
2023/08/24 04:07:58;;;;;;;;;10.00;8.67;;;;;26.96;100.00;100960.63;5035659;28;45759;-77
2023/08/24 04:10:24;;;;;;;;;10.33;8.00;;;;;26.95;100.00;100959.72;5038686;28;45470;-75
2023/08/24 04:12:49;;;;;;;;;10.67;10.00;;;;;26.96;100.00;100958.78;5039171;28;45287;-76
2023/08/24 04:15:14;;;;;;;;;13.00;11.00;;;;;26.95;100.00;100954.31;5039503;28;45452;-75
2023/08/24 04:17:40;;;;;;;;;11.33;10.00;;;;;26.97;100.00;100952.41;5039158;28;45211;-75
2023/08/24 04:20:07;;;;;;;;;10.00;10.00;;;;;27.00;100.00;100948.63;5039029;28;45456;-75
2023/08/24 04:22:32;;;;;;;;;8.67;8.67;;;;;26.99;100.00;100949.59;5039160;28;45400;-76
2023/08/24 04:24:58;;;;;;;;;10.00;10.00;;;;;26.95;100.00;100951.59;5039052;28;45812;-74
2023/08/24 04:27:23;;;;;;;;;10.00;10.00;;;;;26.94;100.00;100944.44;5036989;28;54599;-76
2023/08/24 04:29:49;;;;;;;;;14.33;10.00;;;;;26.89;100.00;100941.97;5037849;28;45245;-76
2023/08/24 04:32:14;;;;;;;;;10.00;9.00;;;;;26.88;100.00;100942.06;5038479;28;45944;-77
2023/08/24 04:34:39;;;;;;;;;10.00;8.67;;;;;26.91;100.00;100939.19;5038632;28;45650;-76
2023/08/24 04:37:06;;;;;;;;;8.33;8.33;;;;;26.89;100.00;100938.38;5038416;28;47622;-76
2023/08/24 04:39:32;;;;;;;;;8.33;8.33;;;;;26.88;100.00;100928.50;5036264;28;45535;-76
2023/08/24 04:41:57;;;;;;;;;11.33;8.67;;;;;26.88;100.00;100926.69;5035713;28;45238;-75
2023/08/24 04:44:24;;;;;;;;;7.67;7.67;;;;;26.88;100.00;100920.38;5038398;28;45650;-76
2023/08/24 04:46:49;;;;;;;;;11.00;9.33;;;;;26.85;100.00;100915.16;5038507;28;47467;-75
2023/08/24 04:49:15;;;;;;;;;9.67;9.67;;;;;26.85;100.00;100918.72;5037610;28;56419;-76
2023/08/24 04:51:40;;;;;;;;;11.00;9.33;;;;;26.83;100.00;100914.34;5037977;28;45245;-76
2023/08/24 04:54:05;;;;;;;;;10.33;8.67;;;;;26.84;100.00;100911.53;5038309;28;45380;-75
2023/08/24 04:56:31;;;;;;;;;15.67;11.33;;;;;26.84;100.00;100916.09;5037686;28;60873;-75
2023/08/24 04:58:57;;;;;;;;;7.33;7.33;;;;;26.81;100.00;100911.72;5038476;28;45358;-74
2023/08/24 05:01:26;;;;;;;;;14.67;9.00;;;;;26.81;100.00;100914.44;5039096;28;45281;-75
2023/08/24 05:03:52;;;;;;;;;9.33;9.33;;;;;26.82;100.00;100909.88;5042542;28;45451;-75
2023/08/24 05:06:18;;;;;;;;;10.67;10.67;;;;;26.83;100.00;100917.94;5037952;28;46536;-75
2023/08/24 05:08:44;;;;;;;;;10.67;9.67;;;;;26.86;100.00;100908.78;5042305;28;45555;-73
2023/08/24 05:11:13;;;;;;;;;9.00;8.00;;;;;26.88;100.00;100909.53;5031717;28;45308;-74
2023/08/24 05:13:40;;;;;;;;;10.00;10.00;;;;;26.86;100.00;100916.91;5033029;28;45681;-73
2023/08/24 05:16:05;;;;;;;;;10.00;10.00;;;;;26.87;100.00;100924.06;5037901;28;46656;-75
2023/08/24 05:18:31;;;;;;;;;8.67;8.00;;;;;26.90;100.00;100927.50;5036502;28;57432;-73
2023/08/24 05:20:56;;;;;;;;;10.33;9.33;;;;;26.92;100.00;100930.09;5036373;28;45510;-75
2023/08/24 05:23:21;;;;;;;;;10.33;10.33;;;;;26.96;100.00;100933.53;5030537;28;45511;-73
2023/08/24 05:25:47;;;;;;;;;11.33;11.00;;;;;26.98;100.00;100932.47;5034614;28;68567;-75
2023/08/24 05:28:12;;;;;;;;;8.00;7.00;;;;;27.03;100.00;100924.94;5036650;28;64851;-75
2023/08/24 05:30:38;;;;;;;;;8.67;8.67;;;;;27.10;100.00;100925.50;5037638;28;45325;-75
2023/08/24 05:33:03;;;;;;;;;13.33;9.33;;;;;27.15;100.00;100918.00;5037830;28;45607;-74
2023/08/24 05:35:29;;;;;;;;;7.00;7.00;;;;;27.20;100.00;100928.56;5037338;28;46148;-75
2023/08/24 05:37:54;;;;;;;;;9.00;9.00;;;;;27.24;100.00;100917.47;5036971;28;45498;-74
2023/08/24 05:40:19;;;;;;;;;8.00;8.00;;;;;27.32;100.00;100925.16;5034857;28;45504;-74
2023/08/24 05:42:45;;;;;;;;;9.33;9.00;;;;;27.46;100.00;100913.53;5037109;28;45269;-74
2023/08/24 05:45:12;;;;;;;;;11.67;10.00;;;;;27.56;100.00;100910.19;5014783;28;64063;-74
2023/08/24 05:47:37;;;;;;;;;12.00;9.00;;;;;27.71;100.00;100905.75;5016682;28;45473;-74
2023/08/24 05:50:02;;;;;;;;;8.67;8.00;;;;;27.81;100.00;100895.22;5017779;28;45320;-74
2023/08/24 05:52:28;;;;;;;;;13.33;11.00;;;;;27.84;100.00;100890.47;5016772;28;45308;-73
2023/08/24 05:54:53;;;;;;;;;11.00;10.00;;;;;27.89;100.00;100871.19;5016878;28;46797;-73
2023/08/24 05:57:19;;;;;;;;;13.67;9.00;;;;;27.92;100.00;100876.44;5016995;28;45277;-73
2023/08/24 05:59:44;;;;;;;;;9.67;8.00;;;;;27.93;100.00;100883.63;5016040;28;45553;-75
2023/08/24 06:02:09;;;;;;;;;10.33;10.00;;;;;27.92;100.00;100896.31;5016473;28;61991;-74
2023/08/24 06:04:35;;;;;;;;;9.33;9.00;;;;;27.99;100.00;100902.25;5016524;28;67934;-74
2023/08/24 06:07:00;;;;;;;;;9.00;9.00;;;;;28.03;100.00;100897.50;5016591;28;45542;-74
2023/08/24 06:09:25;;;;;;;;;10.67;9.67;;;;;28.05;100.00;100899.16;5016394;28;62305;-74
2023/08/24 06:11:51;;;;;;;;;9.00;9.00;;;;;28.11;100.00;100898.75;5016108;28;45519;-74
2023/08/24 06:14:16;;;;;;;;;8.67;8.67;;;;;28.08;100.00;100898.97;5015914;28;67379;-75
2023/08/24 06:16:41;;;;;;;;;11.00;10.00;;;;;28.10;100.00;100896.16;5015747;28;61470;-74
2023/08/24 06:19:07;;;;;;;;;11.33;9.00;;;;;28.14;100.00;100904.03;5016992;28;47529;-75
2023/08/24 06:21:32;;;;;;;;;9.67;9.67;;;;;28.14;100.00;100904.03;5016333;28;62215;-73
2023/08/24 06:23:57;;;;;;;;;8.00;8.00;;;;;28.16;100.00;100917.50;5016418;28;62836;-74
2023/08/24 06:26:23;;;;;;;;;9.00;9.00;;;;;28.13;100.00;100918.56;5016367;28;66415;-72
2023/08/24 06:28:48;;;;;;;;;9.00;9.00;;;;;28.16;100.00;100920.22;5014935;28;45451;-74
2023/08/24 06:31:14;;;;;;;;;12.00;12.00;;;;;28.18;100.00;100915.59;5015915;28;45535;-73
2023/08/24 06:33:39;;;;;;;;;10.00;10.00;;;;;28.18;100.00;100905.59;5016881;28;45678;-73
2023/08/24 06:36:05;;;;;;;;;10.33;10.33;;;;;28.21;100.00;100899.09;5014579;28;67581;-73
2023/08/24 06:38:31;;;;;;;;;12.00;9.67;;;;;28.26;100.00;100891.53;5016696;28;45258;-72
2023/08/24 06:40:59;;;;;;;;;12.00;10.33;;;;;28.29;100.00;100901.34;5013513;28;45633;-74
2023/08/24 06:43:25;;;;;;;;;10.33;10.00;;;;;28.34;100.00;100899.25;5016093;28;46505;-73
2023/08/24 06:45:51;;;;;;;;;9.33;8.67;;;;;28.39;100.00;100898.00;5034701;28;45462;-72
2023/08/24 06:48:17;;;;;;;;;10.67;10.67;;;;;28.44;100.00;100898.59;5036650;28;45376;-73
2023/08/24 06:50:43;;;;;;;;;8.67;8.67;;;;;28.45;100.00;100904.88;5035829;28;45425;-72
2023/08/24 06:53:08;;;;;;;;;10.67;10.67;;;;;28.51;100.00;100906.34;5036213;28;45745;-73
2023/08/24 06:55:33;;;;;;;;;11.33;10.33;;;;;28.53;100.00;100905.25;5035011;28;64338;-72
2023/08/24 06:57:59;;;;;;;;;10.67;9.33;;;;;28.53;100.00;100886.25;5035293;28;53929;-73
2023/08/24 07:00:25;;;;;;;;;10.67;10.67;;;;;28.55;100.00;100887.03;5035160;28;60633;-72
2023/08/24 07:02:50;;;;;;;;;12.33;10.00;;;;;28.59;100.00;100888.56;5039999;28;47476;-73
2023/08/24 07:05:18;;;;;;;;;12.00;9.00;;;;;28.66;100.00;100889.94;5036032;28;45479;-72
2023/08/24 07:07:45;;;;;;;;;12.00;11.00;;;;;28.74;100.00;100889.44;5035271;28;45313;-73
2023/08/24 07:10:10;;;;;;;;;10.00;9.00;;;;;28.73;100.00;100894.97;5033650;28;46314;-73
2023/08/24 07:12:36;;;;;;;;;9.33;9.33;;;;;28.78;100.00;100896.44;5034805;28;45639;-73
2023/08/24 07:15:02;;;;;;;;;11.67;10.00;;;;;28.86;100.00;100896.81;5035093;28;45401;-73
2023/08/24 07:17:27;;;;;;;;;12.33;10.33;;;;;28.93;100.00;100895.47;5035701;28;45571;-72
2023/08/24 07:19:53;;;;;;;;;14.00;11.00;;;;;29.01;100.00;100892.25;5029739;28;45944;-72
2023/08/24 07:22:19;;;;;;;;;10.00;10.00;;;;;29.05;100.00;100893.81;5030443;28;45369;-72
2023/08/24 07:24:44;;;;;;;;;13.00;11.00;;;;;29.12;100.00;100894.28;5035291;28;45242;-72
2023/08/24 07:27:09;;;;;;;;;11.67;11.33;;;;;29.11;100.00;100901.56;5031448;28;45455;-71
2023/08/24 07:29:35;;;;;;;;;12.00;10.67;;;;;29.14;100.00;100890.50;5016807;28;52461;-72
2023/08/24 07:32:00;;;;;;;;;11.00;10.33;;;;;29.18;100.00;100889.28;5034772;28;46416;-72
2023/08/24 07:34:26;;;;;;;;;11.67;9.33;;;;;29.18;100.00;100875.69;5034777;28;62093;-73
2023/08/24 07:36:51;;;;;;;;;11.33;10.33;;;;;29.17;100.00;100863.09;5035585;28;45651;-72
2023/08/24 07:39:17;;;;;;;;;11.33;11.00;;;;;29.10;100.00;100859.03;5034040;28;45591;-72
2023/08/24 07:41:42;;;;;;;;;10.33;9.00;;;;;29.11;100.00;100868.94;5031779;28;62168;-73
2023/08/24 07:44:08;;;;;;;;;9.67;9.67;;;;;29.08;100.00;100866.41;5044637;22;45513;-73
2023/08/24 07:46:33;;;;;;;;;10.00;10.00;;;;;29.06;100.00;100865.63;5078812;28;59012;-72
2023/08/24 07:48:59;;;;;;;;;11.67;9.67;;;;;29.07;100.00;100858.34;5076232;28;52103;-72
2023/08/24 07:51:24;;;;;;;;;10.33;9.00;;;;;29.09;100.00;100851.00;5076113;28;54122;-72
2023/08/24 07:53:52;;;;;;;;;10.33;10.33;;;;;29.07;100.00;100842.91;5075722;28;60908;-72
2023/08/24 07:56:17;;;;;;;;;11.67;10.00;;;;;29.04;100.00;100836.81;5077609;28;45634;-72
2023/08/24 07:58:42;;;;;;;;;11.00;9.33;;;;;28.99;100.00;100837.13;5076457;28;45628;-72
2023/08/24 08:01:08;;;;;;;;;12.67;11.67;;;;;28.99;100.00;100847.13;5072045;28;60190;-73
2023/08/24 08:03:35;;;;;;;;;9.33;9.33;;;;;28.99;100.00;100882.47;5070953;27;45330;-72
2023/08/24 08:06:01;;;;;;;;;11.33;9.00;;;;;29.02;100.00;100896.72;5074009;28;45505;-72
2023/08/24 08:08:26;;;;;;;;;11.00;11.00;;;;;29.02;100.00;100894.00;5065594;28;45540;-71
2023/08/24 08:11:02;;;;;;;;;11.33;11.33;;;;;29.07;100.00;100900.00;5065661;28;51560;-71
2023/08/24 08:13:28;;;;;;;;;9.33;9.33;;;;;29.13;100.00;100898.72;5071138;28;45433;-72
2023/08/24 08:15:54;;;;;;;;;9.33;9.00;;;;;29.16;100.00;100895.81;5075536;28;45451;-71
2023/08/24 08:18:19;;;;;;;;;10.67;10.00;;;;;29.21;100.00;100885.53;5077845;28;45380;-72
2023/08/24 08:20:44;;;;;;;;;12.00;10.00;;;;;29.32;100.00;100879.38;5078970;28;46007;-72
2023/08/24 08:23:10;;;;;;;;;13.00;12.67;;;;;29.35;100.00;100876.41;5075105;28;45449;-73
2023/08/24 08:25:35;;;;;;;;;16.00;13.00;;;;;29.36;100.00;100870.03;5073909;28;48716;-72
2023/08/24 08:28:01;;;;;;;;;10.00;10.00;;;;;29.38;100.00;100873.50;5058064;28;45621;-71
2023/08/24 08:30:26;;;;;;;;;13.00;11.33;;;;;29.37;100.00;100877.22;5075345;28;52109;-72
2023/08/24 08:32:52;;;;;;;;;16.33;11.67;;;;;29.45;100.00;100878.41;5075781;28;45422;-73
2023/08/24 08:35:18;;;;;;;;;11.33;11.33;;;;;29.48;100.00;100885.53;5072395;28;46469;-72
2023/08/24 08:37:44;;;;;;;;;11.67;11.33;;;;;29.47;100.00;100890.09;5077724;28;45288;-71
2023/08/24 08:40:11;;;;;;;;;12.33;12.33;;;;;29.49;100.00;100895.44;5054439;28;48612;-70
2023/08/24 08:42:36;;;;;;;;;10.00;10.00;;;;;29.49;100.00;100903.59;5078160;28;45422;-72
2023/08/24 08:45:04;;;;;;;;;11.33;11.33;;;;;29.49;100.00;100912.63;5075726;28;50709;-71
2023/08/24 08:47:30;;;;;;;;;12.00;11.00;;;;;29.44;100.00;100905.75;5077994;28;45508;-72
2023/08/24 08:49:56;;;;;;;;;11.00;11.00;;;;;29.35;100.00;100898.19;5077486;28;45633;-72
2023/08/24 08:52:21;;;;;;;;;13.67;11.00;;;;;29.30;100.00;100905.81;5078486;28;45455;-71
2023/08/24 08:54:47;;;;;;;;;12.00;12.00;;;;;29.27;100.00;100917.75;5074688;28;50296;-71
2023/08/24 08:57:13;;;;;;;;;10.00;10.00;;;;;29.29;100.00;100912.19;5078085;28;52423;-71
2023/08/24 08:59:38;;;;;;;;;11.33;11.33;;;;;29.41;100.00;100922.28;5077805;28;45670;-71
2023/08/24 09:02:04;;;;;;;;;11.67;11.00;;;;;29.52;100.00;100927.88;5079408;27;45474;-72
2023/08/24 09:04:31;;;;;;;;;9.67;9.67;;;;;29.64;100.00;100918.06;5068168;27;47236;-71
2023/08/24 09:06:56;;;;;;;;;10.33;10.33;;;;;29.65;100.00;100901.63;5084001;27;45513;-71
2023/08/24 09:09:24;;;;;;;;;9.67;9.67;;;;;29.73;100.00;100880.22;5083136;27;46536;-71
2023/08/24 09:11:50;;;;;;;;;13.00;11.00;;;;;29.86;100.00;100863.03;5081234;27;45334;-72
2023/08/24 09:14:16;;;;;;;;;11.00;11.00;;;;;29.99;100.00;100861.19;5078896;27;45508;-71
2023/08/24 09:16:42;;;;;;;;;13.67;11.00;;;;;30.12;100.00;100858.50;5077752;27;61062;-72
2023/08/24 09:19:11;;;;;;;;;12.00;10.33;;;;;30.25;100.00;100860.25;5079553;27;47411;-72
2023/08/24 09:21:37;;;;;;;;;14.33;11.00;;;;;30.31;100.00;100848.06;5086475;27;45470;-71
2023/08/24 09:24:03;;;;;;;;;14.00;12.67;;;;;30.35;100.00;100845.97;5082654;27;45387;-72
2023/08/24 09:26:30;;;;;;;;;12.00;12.00;;;;;30.37;100.00;100854.94;5095039;27;45469;-71
2023/08/24 09:28:55;;;;;;;;;11.33;9.33;;;;;30.33;100.00;100873.34;5080249;27;45730;-71
2023/08/24 09:31:20;;;;;;;;;10.00;10.00;;;;;30.28;100.00;100886.41;5090935;27;45523;-72
2023/08/24 09:33:47;;;;;;;;;10.00;8.33;;;;;30.27;100.00;100907.34;5062809;28;45508;-73
2023/08/24 09:36:14;;;;;;;;;12.67;10.67;;;;;30.25;100.00;100911.13;5085882;27;45357;-70
2023/08/24 09:38:46;;;;;;;;;12.00;10.00;;;;;30.30;100.00;100902.63;5062889;28;46405;-71
2023/08/24 09:41:11;;;;;;;;;10.33;10.33;;;;;30.34;100.00;100898.72;5079637;27;45451;-72
2023/08/24 09:43:37;;;;;;;;;13.00;11.00;;;;;30.44;100.00;100910.72;5083022;27;45269;-72
2023/08/24 09:46:04;;;;;;;;;13.00;10.00;;;;;30.53;100.00;100926.44;5078414;28;45549;-71
2023/08/24 09:48:30;;;;;;;;;10.67;10.67;;;;;30.60;100.00;100938.63;5079351;27;45232;-72
2023/08/24 09:50:56;;;;;;;;;12.00;10.00;;;;;30.63;100.00;100949.31;5078221;27;45430;-72
2023/08/24 09:53:23;;;;;;;;;11.00;11.00;;;;;30.62;100.00;100955.72;5075882;27;45454;-72
2023/08/24 09:56:01;;;;;;;;;10.33;9.67;;;;;30.53;100.00;100964.59;5072397;28;45359;-72
2023/08/24 09:58:27;;;;;;;;;9.00;9.00;;;;;30.44;100.00;100957.03;5075160;28;46691;-72
2023/08/24 10:00:54;;;;;;;;;7.67;7.67;;;;;30.36;100.00;100957.59;5077558;28;45454;-72
2023/08/24 10:03:21;;;;;;;;;12.67;10.00;;;;;30.30;100.00;100951.69;5082225;27;45444;-73
2023/08/24 10:06:03;;;;;;;;;12.00;9.00;;;;;30.21;100.00;100962.25;5085350;27;45447;-73
2023/08/24 10:08:41;;;;;;;;;10.67;10.00;;;;;30.16;100.00;100960.81;5072754;27;47403;-72
2023/08/24 10:11:07;;;;;;;;;9.33;9.00;;;;;30.14;100.00;100943.69;5076533;27;45482;-73
2023/08/24 10:13:55;;;;;;;;;10.33;9.33;;;;;30.13;100.00;100931.94;5074010;28;55552;-72
2023/08/24 10:16:21;;;;;;;;;9.33;9.33;;;;;30.11;100.00;100911.22;5075695;28;45462;-73
2023/08/24 10:18:47;;;;;;;;;9.33;9.33;;;;;30.15;100.00;100905.47;5077215;28;50581;-72
2023/08/24 10:21:13;;;;;;;;;10.67;10.00;;;;;30.23;100.00;100908.53;5076292;28;45407;-72
2023/08/24 10:23:39;;;;;;;;;9.00;9.00;;;;;30.30;100.00;100906.22;5076239;28;62439;-72
2023/08/24 10:26:06;;;;;;;;;9.33;9.33;;;;;30.32;100.00;100912.47;5057591;28;65468;-72
2023/08/24 10:28:32;;;;;;;;;10.00;10.00;;;;;30.34;100.00;100909.63;5076898;28;45619;-72
2023/08/24 10:30:59;;;;;;;;;9.67;9.00;;;;;30.40;100.00;100922.81;5076656;28;45419;-73
2023/08/24 10:33:26;;;;;;;;;10.00;10.00;;;;;30.39;100.00;100941.00;5075654;28;45451;-73
2023/08/24 10:35:52;;;;;;;;;11.67;10.00;;;;;30.43;100.00;100941.69;5052080;28;45633;-73
2023/08/24 10:38:28;;;;;;;;;12.67;9.33;;;;;30.44;100.00;100952.47;5056762;28;46326;-75
2023/08/24 10:40:54;;;;;;;;;10.33;10.33;;;;;30.40;100.00;100960.97;5041540;28;46162;-76
2023/08/24 10:43:20;;;;;;;;;10.67;9.33;;;;;30.35;100.00;100974.91;5062428;28;45495;-76
2023/08/24 10:46:03;;;;;;;;;9.33;9.33;;;;;30.33;100.00;100978.72;5058811;28;45402;-75
2023/08/24 10:48:41;;;;;;;;;10.67;10.67;;;;;30.30;100.00;100977.06;5065760;28;46661;-76
2023/08/24 10:51:21;;;;;;;;;10.67;9.67;;;;;30.26;100.00;100990.06;5058949;28;45514;-74
2023/08/24 10:53:52;;;;;;;;;8.33;8.33;;;;;30.20;100.00;100986.84;5061622;28;45414;-74
2023/08/24 10:56:18;;;;;;;;;12.33;8.00;;;;;30.18;100.00;100989.69;5071975;28;45522;-77
2023/08/24 10:58:45;;;;;;;;;9.00;9.00;;;;;30.13;100.00;100977.38;5076428;28;46500;-76
2023/08/24 11:01:21;;;;;;;;;9.00;9.00;;;;;30.12;100.00;100971.03;5076330;28;45396;-76
2023/08/24 11:03:55;;;;;;;;;19.00;16.33;;;;;30.10;100.00;100985.72;5083587;27;45492;-74
2023/08/24 11:06:22;;;;;;;;;12.67;11.33;;;;;30.09;100.00;100986.69;5065378;28;45510;-74